createdAt,value
2023-02-26T00:01:00.361Z,-0.4
2023-02-26T00:02:00.034Z,-0.4
2023-02-26T00:03:00.881Z,-0.4
2023-02-26T00:04:00.488Z,-0.4
2023-02-26T00:04:59.827Z,-0.4
2023-02-26T00:06:00.381Z,-0.4
2023-02-26T00:07:00.043Z,-0.5
2023-02-26T00:07:59.621Z,-0.5
2023-02-26T00:09:00.209Z,-0.5
2023-02-26T00:09:59.890Z,-0.5
2023-02-26T00:11:00.418Z,-0.5
2023-02-26T00:12:00.095Z,-0.5
2023-02-26T00:12:59.649Z,-0.5
2023-02-26T00:14:00.234Z,-0.6
2023-02-26T00:14:59.895Z,-0.5
2023-02-26T00:16:00.433Z,-0.5
2023-02-26T00:17:00.110Z,-0.5
2023-02-26T00:17:59.638Z,-0.5
2023-02-26T00:19:00.208Z,-0.5
2023-02-26T00:19:59.792Z,-0.4
2023-02-26T00:21:00.366Z,-0.4
2023-02-26T00:21:59.977Z,-0.4
2023-02-26T00:23:00.527Z,-0.4
2023-02-26T00:24:00.121Z,-0.4
2023-02-26T00:24:59.695Z,-0.3
2023-02-26T00:26:00.263Z,-0.3
2023-02-26T00:26:59.971Z,-0.4
2023-02-26T00:28:00.426Z,-0.4
2023-02-26T00:29:00.033Z,-0.3
2023-02-26T00:30:00.585Z,-0.2
2023-02-26T00:31:00.218Z,-0.2
2023-02-26T00:31:59.920Z,-0.2
2023-02-26T00:33:00.430Z,-0.2
2023-02-26T00:34:00.033Z,-0.2
2023-02-26T00:35:00.604Z,-0.2
2023-02-26T00:36:00.196Z,-0.2
2023-02-26T00:36:59.782Z,-0.1
2023-02-26T00:38:00.360Z,-0.1
2023-02-26T00:38:59.972Z,-0.2
2023-02-26T00:40:00.542Z,-0.1
2023-02-26T00:41:00.131Z,-0.1
2023-02-26T00:41:59.715Z,0
2023-02-26T00:43:00.279Z,0
2023-02-26T00:43:59.872Z,0
2023-02-26T00:45:00.472Z,0
2023-02-26T00:46:00.114Z,0
2023-02-26T00:46:59.672Z,-0.1
2023-02-26T00:48:00.231Z,0
2023-02-26T00:48:59.822Z,0
2023-02-26T00:50:00.442Z,0
2023-02-26T00:51:00.058Z,0
2023-02-26T00:52:00.617Z,0
2023-02-26T00:53:00.203Z,0
2023-02-26T00:53:59.792Z,0
2023-02-26T00:55:00.391Z,0
2023-02-26T00:55:59.993Z,0
2023-02-26T00:57:00.553Z,0
2023-02-26T00:58:00.138Z,0
2023-02-26T00:58:59.730Z,0
2023-02-26T01:00:00.322Z,0
2023-02-26T01:00:59.933Z,0
2023-02-26T01:02:00.484Z,0
2023-02-26T01:03:00.116Z,0
2023-02-26T01:03:59.673Z,0
2023-02-26T01:05:00.234Z,0.1
2023-02-26T01:05:59.850Z,0.1
2023-02-26T01:07:00.411Z,0.1
2023-02-26T01:08:00.020Z,0
2023-02-26T01:09:00.589Z,0.1
2023-02-26T01:10:00.175Z,0.1
2023-02-26T01:10:59.783Z,0.1
2023-02-26T01:12:00.335Z,0.1
2023-02-26T01:12:59.945Z,0.1
2023-02-26T01:14:00.499Z,0.1
2023-02-26T01:15:00.115Z,0.1
2023-02-26T01:15:59.737Z,0.1
2023-02-26T01:17:00.308Z,0
2023-02-26T01:17:59.894Z,0
2023-02-26T01:19:00.504Z,0
2023-02-26T01:20:00.156Z,0
2023-02-26T01:20:59.677Z,0
2023-02-26T01:22:00.281Z,0
2023-02-26T01:22:59.871Z,0
2023-02-26T01:24:00.452Z,0
2023-02-26T01:25:00.038Z,0
2023-02-26T01:26:00.623Z,0
2023-02-26T01:27:00.236Z,0
2023-02-26T01:27:59.926Z,0
2023-02-26T01:29:00.395Z,0
2023-02-26T01:29:59.983Z,0
2023-02-26T01:31:00.838Z,0
2023-02-26T01:31:59.919Z,0
2023-02-26T01:33:00.586Z,-0.1
2023-02-26T01:34:00.184Z,-0.1
2023-02-26T01:34:59.798Z,-0.1
2023-02-26T01:36:00.347Z,0
2023-02-26T01:36:59.997Z,0
2023-02-26T01:38:00.591Z,0
2023-02-26T01:39:00.176Z,0
2023-02-26T01:39:59.773Z,0
2023-02-26T01:41:00.374Z,-0.1
2023-02-26T01:41:59.989Z,0
2023-02-26T01:43:00.578Z,-0.1
2023-02-26T01:44:00.201Z,-0.1
2023-02-26T01:44:59.792Z,-0.1
2023-02-26T01:46:00.356Z,-0.1
2023-02-26T01:47:00.010Z,0
2023-02-26T01:48:00.537Z,0
2023-02-26T01:49:00.185Z,0
2023-02-26T01:49:59.700Z,0
2023-02-26T01:51:00.315Z,0
2023-02-26T01:51:59.926Z,0
2023-02-26T01:53:00.497Z,-0.1
2023-02-26T01:54:00.116Z,0
2023-02-26T01:54:59.663Z,0
2023-02-26T01:56:00.239Z,-0.1
2023-02-26T01:56:59.822Z,-0.1
2023-02-26T01:58:00.397Z,-0.1
2023-02-26T01:59:00.002Z,-0.1
2023-02-26T02:00:00.579Z,-0.1
2023-02-26T02:01:00.169Z,-0.1
2023-02-26T02:01:59.757Z,-0.2
2023-02-26T02:03:00.472Z,-0.1
2023-02-26T02:03:59.978Z,-0.2
2023-02-26T02:05:00.582Z,-0.1
2023-02-26T02:06:00.175Z,-0.2
2023-02-26T02:06:59.788Z,-0.2
2023-02-26T02:08:00.342Z,-0.3
2023-02-26T02:08:59.934Z,-0.2
2023-02-26T02:10:00.550Z,-0.3
2023-02-26T02:11:00.162Z,-0.4
2023-02-26T02:11:59.738Z,-0.3
2023-02-26T02:13:00.320Z,-0.3
2023-02-26T02:13:59.909Z,-0.3
2023-02-26T02:15:00.513Z,-0.4
2023-02-26T02:16:00.167Z,-0.4
2023-02-26T02:16:59.685Z,-0.5
2023-02-26T02:18:00.255Z,-0.5
2023-02-26T02:18:59.850Z,-0.5
2023-02-26T02:20:00.452Z,-0.6
2023-02-26T02:21:00.038Z,-0.5
2023-02-26T02:22:03.219Z,-0.6
2023-02-26T02:23:00.220Z,-0.6
2023-02-26T02:23:59.807Z,-0.6
2023-02-26T02:25:00.381Z,-0.5
2023-02-26T02:25:59.971Z,-0.5
2023-02-26T02:27:00.568Z,-0.6
2023-02-26T02:28:00.274Z,-0.6
2023-02-26T02:28:59.798Z,-0.6
2023-02-26T02:30:00.346Z,-0.7
2023-02-26T02:31:00.029Z,-0.7
2023-02-26T02:32:00.682Z,-0.7
2023-02-26T02:33:00.176Z,-0.7
2023-02-26T02:33:59.783Z,-0.7
2023-02-26T02:35:00.348Z,-0.7
2023-02-26T02:35:59.941Z,-0.7
2023-02-26T02:37:00.516Z,-0.7
2023-02-26T02:38:00.128Z,-0.8
2023-02-26T02:38:59.726Z,-0.7
2023-02-26T02:40:00.289Z,-0.7
2023-02-26T02:40:59.887Z,-0.7
2023-02-26T02:42:00.466Z,-0.7
2023-02-26T02:43:00.065Z,-0.7
2023-02-26T02:43:59.643Z,-0.7
2023-02-26T02:45:00.248Z,-0.7
2023-02-26T02:45:59.860Z,-0.7
2023-02-26T02:47:00.540Z,-0.8
2023-02-26T02:48:00.111Z,-0.8
2023-02-26T02:48:59.648Z,-0.7
2023-02-26T02:50:00.249Z,-0.7
2023-02-26T02:50:59.837Z,-0.8
2023-02-26T02:52:00.426Z,-0.8
2023-02-26T02:53:00.019Z,-0.9
2023-02-26T02:54:00.597Z,-0.9
2023-02-26T02:55:00.227Z,-0.8
2023-02-26T02:55:59.822Z,-0.8
2023-02-26T02:57:00.390Z,-0.8
2023-02-26T02:57:59.998Z,-0.8
2023-02-26T02:59:00.561Z,-0.9
2023-02-26T03:00:00.228Z,-0.9
2023-02-26T03:00:59.870Z,-1
2023-02-26T03:02:00.393Z,-0.9
2023-02-26T03:03:00.109Z,-1
2023-02-26T03:04:00.571Z,-0.9
2023-02-26T03:05:00.170Z,-0.9
2023-02-26T03:05:59.778Z,-0.9
2023-02-26T03:07:00.334Z,-0.9
2023-02-26T03:07:59.952Z,-0.9
2023-02-26T03:09:00.503Z,-1
2023-02-26T03:10:00.132Z,-0.9
2023-02-26T03:10:59.748Z,-1
2023-02-26T03:12:00.242Z,-1
2023-02-26T03:12:59.854Z,-1
2023-02-26T03:14:00.415Z,-1
2023-02-26T03:15:00.007Z,-0.9
2023-02-26T03:16:00.724Z,-1
2023-02-26T03:17:00.333Z,-1
2023-02-26T03:17:59.799Z,-1
2023-02-26T03:19:00.403Z,-1
2023-02-26T03:19:59.997Z,-1
2023-02-26T03:21:00.566Z,-1
2023-02-26T03:22:00.161Z,-1
2023-02-26T03:22:59.756Z,-1
2023-02-26T03:24:00.369Z,-1
2023-02-26T03:24:59.967Z,-1
2023-02-26T03:26:00.536Z,-1.1
2023-02-26T03:27:00.152Z,-1
2023-02-26T03:27:59.711Z,-1
2023-02-26T03:29:00.402Z,-1
2023-02-26T03:29:59.945Z,-1
2023-02-26T03:31:00.636Z,-1
2023-02-26T03:32:00.285Z,-1
2023-02-26T03:32:59.748Z,-1
2023-02-26T03:34:00.320Z,-1.1
2023-02-26T03:34:59.952Z,-1.1
2023-02-26T03:36:00.534Z,-1.1
2023-02-26T03:37:00.123Z,-1.1
2023-02-26T03:37:59.699Z,-1.1
2023-02-26T03:39:00.287Z,-1.1
2023-02-26T03:39:59.886Z,-1
2023-02-26T03:41:00.470Z,-1.2
2023-02-26T03:42:00.074Z,-1.2
2023-02-26T03:42:59.672Z,-1.2
2023-02-26T03:44:00.233Z,-1.2
2023-02-26T03:44:59.851Z,-1.2
2023-02-26T03:46:00.493Z,-1.2
2023-02-26T03:47:00.125Z,-1.2
2023-02-26T03:47:59.674Z,-1.1
2023-02-26T03:49:00.269Z,-1.1
2023-02-26T03:49:59.873Z,-1.1
2023-02-26T03:51:00.458Z,-1.2
2023-02-26T03:52:00.063Z,-1.1
2023-02-26T03:52:59.631Z,-1.1
2023-02-26T03:54:00.205Z,-1.2
2023-02-26T03:54:59.824Z,-1.2
2023-02-26T03:56:00.400Z,-1.2
2023-02-26T03:57:00.018Z,-1.1
2023-02-26T03:58:00.579Z,-1.1
2023-02-26T03:59:00.189Z,-1.1
2023-02-26T03:59:59.812Z,-1.2
2023-02-26T04:01:00.357Z,-1.1
2023-02-26T04:01:59.986Z,-1.2
2023-02-26T04:03:00.515Z,-1.2
2023-02-26T04:04:00.188Z,-1.2
2023-02-26T04:04:59.717Z,-1.2
2023-02-26T04:06:00.272Z,-1.2
2023-02-26T04:06:59.861Z,-1.2
2023-02-26T04:08:00.456Z,-1.2
2023-02-26T04:09:00.044Z,-1.2
2023-02-26T04:09:59.650Z,-1.2
2023-02-26T04:11:00.213Z,-1.2
2023-02-26T04:11:59.803Z,-1.2
2023-02-26T04:13:00.387Z,-1.2
2023-02-26T04:13:59.990Z,-1.2
2023-02-26T04:15:00.610Z,-1.2
2023-02-26T04:16:00.209Z,-1.2
2023-02-26T04:16:59.853Z,-1.2
2023-02-26T04:18:00.366Z,-1.2
2023-02-26T04:18:59.960Z,-1.2
2023-02-26T04:20:00.548Z,-1.3
2023-02-26T04:21:00.136Z,-1.3
2023-02-26T04:21:59.706Z,-1.2
2023-02-26T04:23:00.279Z,-1.2
2023-02-26T04:23:59.886Z,-1.3
2023-02-26T04:25:00.509Z,-1.3
2023-02-26T04:26:00.099Z,-1.3
2023-02-26T04:26:59.684Z,-1.3
2023-02-26T04:28:00.271Z,-1.3
2023-02-26T04:28:59.952Z,-1.4
2023-02-26T04:30:00.490Z,-1.3
2023-02-26T04:31:00.231Z,-1.3
2023-02-26T04:31:59.799Z,-1.3
2023-02-26T04:33:00.222Z,-1.3
2023-02-26T04:33:59.853Z,-1.3
2023-02-26T04:35:00.456Z,-1.3
2023-02-26T04:36:00.047Z,-1.3
2023-02-26T04:36:59.623Z,-1.3
2023-02-26T04:38:00.195Z,-1.3
2023-02-26T04:38:59.781Z,-1.3
2023-02-26T04:40:00.390Z,-1.3
2023-02-26T04:40:59.989Z,-1.4
2023-02-26T04:42:00.568Z,-1.4
2023-02-26T04:43:00.158Z,-1.4
2023-02-26T04:43:59.749Z,-1.4
2023-02-26T04:45:00.346Z,-1.4
2023-02-26T04:46:00.019Z,-1.5
2023-02-26T04:47:00.551Z,-1.5
2023-02-26T04:48:00.155Z,-1.5
2023-02-26T04:48:59.750Z,-1.5
2023-02-26T04:50:00.333Z,-1.5
2023-02-26T04:50:59.951Z,-1.5
2023-02-26T04:52:00.581Z,-1.5
2023-02-26T04:53:00.157Z,-1.5
2023-02-26T04:53:59.733Z,-1.6
2023-02-26T04:55:00.306Z,-1.6
2023-02-26T04:55:59.920Z,-1.6
2023-02-26T04:57:00.476Z,-1.6
2023-02-26T04:58:00.084Z,-1.6
2023-02-26T04:58:59.642Z,-1.6
2023-02-26T05:00:00.229Z,-1.7
2023-02-26T05:00:59.839Z,-1.7
2023-02-26T05:02:00.447Z,-1.7
2023-02-26T05:03:00.084Z,-1.6
2023-02-26T05:03:59.650Z,-1.6
2023-02-26T05:05:00.197Z,-1.6
2023-02-26T05:05:59.784Z,-1.7
2023-02-26T05:07:00.376Z,-1.6
2023-02-26T05:07:59.966Z,-1.7
2023-02-26T05:09:00.546Z,-1.6
2023-02-26T05:10:00.220Z,-1.6
2023-02-26T05:10:59.763Z,-1.6
2023-02-26T05:12:00.361Z,-1.6
2023-02-26T05:12:59.948Z,-1.6
2023-02-26T05:14:00.535Z,-1.7
2023-02-26T05:15:00.143Z,-1.7
2023-02-26T05:15:59.803Z,-1.7
2023-02-26T05:17:00.338Z,-1.7
2023-02-26T05:17:59.947Z,-1.7
2023-02-26T05:19:00.541Z,-1.8
2023-02-26T05:20:00.149Z,-1.8
2023-02-26T05:20:59.715Z,-1.7
2023-02-26T05:22:00.314Z,-1.7
2023-02-26T05:22:59.925Z,-1.8
2023-02-26T05:24:00.478Z,-1.8
2023-02-26T05:25:00.089Z,-1.8
2023-02-26T05:25:59.639Z,-1.8
2023-02-26T05:27:00.211Z,-1.8
2023-02-26T05:27:59.835Z,-1.8
2023-02-26T05:29:00.382Z,-1.9
2023-02-26T05:30:00.119Z,-1.8
2023-02-26T05:31:00.644Z,-1.8
2023-02-26T05:32:00.315Z,-1.8
2023-02-26T05:32:59.812Z,-1.8
2023-02-26T05:34:00.371Z,-1.8
2023-02-26T05:34:59.989Z,-1.8
2023-02-26T05:36:00.561Z,-1.8
2023-02-26T05:37:00.149Z,-1.8
2023-02-26T05:37:59.792Z,-1.8
2023-02-26T05:39:00.353Z,-1.9
2023-02-26T05:39:59.937Z,-1.8
2023-02-26T05:41:00.548Z,-1.8
2023-02-26T05:42:00.151Z,-1.8
2023-02-26T05:42:59.770Z,-1.8
2023-02-26T05:44:00.322Z,-1.8
2023-02-26T05:44:59.914Z,-1.8
2023-02-26T05:46:00.495Z,-1.8
2023-02-26T05:47:00.160Z,-1.8
2023-02-26T05:47:59.676Z,-1.8
2023-02-26T05:49:00.231Z,-1.9
2023-02-26T05:49:59.828Z,-1.9
2023-02-26T05:51:00.457Z,-1.9
2023-02-26T05:52:00.054Z,-1.9
2023-02-26T05:52:59.623Z,-1.9
2023-02-26T05:54:00.216Z,-1.8
2023-02-26T05:54:59.806Z,-1.9
2023-02-26T05:56:00.381Z,-1.9
2023-02-26T05:56:59.991Z,-1.9
2023-02-26T05:58:00.565Z,-1.9
2023-02-26T05:59:00.177Z,-1.8
2023-02-26T05:59:59.760Z,-1.9
2023-02-26T06:01:00.357Z,-1.8
2023-02-26T06:02:00.013Z,-1.8
2023-02-26T06:03:00.594Z,-1.9
2023-02-26T06:04:00.247Z,-1.8
2023-02-26T06:04:59.785Z,-2
2023-02-26T06:06:00.352Z,-1.9
2023-02-26T06:06:59.974Z,-2
2023-02-26T06:08:00.531Z,-2
2023-02-26T06:09:00.140Z,-1.9
2023-02-26T06:09:59.731Z,-2
2023-02-26T06:11:00.330Z,-2
2023-02-26T06:11:59.936Z,-2
2023-02-26T06:13:00.520Z,-1.9
2023-02-26T06:14:00.188Z,-1.9
2023-02-26T06:14:59.725Z,-1.9
2023-02-26T06:16:00.368Z,-2
2023-02-26T06:16:59.988Z,-2
2023-02-26T06:18:00.546Z,-2
2023-02-26T06:19:00.136Z,-2
2023-02-26T06:19:59.723Z,-2
2023-02-26T06:21:00.312Z,-1.9
2023-02-26T06:21:59.936Z,-1.9
2023-02-26T06:23:00.521Z,-1.9
2023-02-26T06:24:00.116Z,-1.9
2023-02-26T06:24:59.688Z,-1.9
2023-02-26T06:26:00.254Z,-1.9
2023-02-26T06:26:59.870Z,-1.9
2023-02-26T06:28:00.430Z,-1.9
2023-02-26T06:29:00.021Z,-1.9
2023-02-26T06:30:00.600Z,-1.9
2023-02-26T06:31:00.334Z,-2
2023-02-26T06:32:00.041Z,-1.9
2023-02-26T06:33:00.409Z,-1.9
2023-02-26T06:34:00.002Z,-1.9
2023-02-26T06:35:00.634Z,-2
2023-02-26T06:36:00.271Z,-1.9
2023-02-26T06:36:59.806Z,-1.9
2023-02-26T06:38:00.387Z,-1.9
2023-02-26T06:39:00.003Z,-1.9
2023-02-26T06:40:00.588Z,-1.9
2023-02-26T06:41:00.181Z,-1.9
2023-02-26T06:41:59.771Z,-1.9
2023-02-26T06:43:00.346Z,-1.9
2023-02-26T06:43:59.968Z,-1.9
2023-02-26T06:45:00.549Z,-1.9
2023-02-26T06:46:00.251Z,-1.9
2023-02-26T06:46:59.734Z,-1.8
2023-02-26T06:48:00.331Z,-1.9
2023-02-26T06:48:59.923Z,-1.8
2023-02-26T06:50:00.538Z,-1.8
2023-02-26T06:51:00.150Z,-1.9
2023-02-26T06:51:59.706Z,-1.8
2023-02-26T06:53:00.290Z,-1.8
2023-02-26T06:53:59.892Z,-1.9
2023-02-26T06:55:00.519Z,-1.8
2023-02-26T06:56:00.145Z,-1.9
2023-02-26T06:56:59.736Z,-1.8
2023-02-26T06:58:00.284Z,-1.8
2023-02-26T06:58:59.882Z,-1.8
2023-02-26T07:00:00.465Z,-1.8
2023-02-26T07:01:00.164Z,-1.8
2023-02-26T07:01:59.721Z,-1.8
2023-02-26T07:03:00.231Z,-1.7
2023-02-26T07:03:59.834Z,-1.7
2023-02-26T07:05:00.406Z,-1.7
2023-02-26T07:06:14.073Z,-1.7
2023-02-26T07:07:00.561Z,-1.6
2023-02-26T07:08:00.157Z,-1.6
2023-02-26T07:08:59.820Z,-1.7
2023-02-26T07:10:00.332Z,-1.6
2023-02-26T07:10:59.951Z,-1.6
2023-02-26T07:12:00.512Z,-1.6
2023-02-26T07:13:00.103Z,-1.6
2023-02-26T07:13:59.676Z,-1.6
2023-02-26T07:15:00.292Z,-1.6
2023-02-26T07:15:59.896Z,-1.6
2023-02-26T07:17:00.530Z,-1.6
2023-02-26T07:18:00.239Z,-1.6
2023-02-26T07:18:59.711Z,-1.6
2023-02-26T07:20:00.302Z,-1.6
2023-02-26T07:20:59.891Z,-1.6
2023-02-26T07:22:00.478Z,-1.5
2023-02-26T07:23:00.108Z,-1.5
2023-02-26T07:23:59.641Z,-1.5
2023-02-26T07:25:00.521Z,-1.5
2023-02-26T07:25:59.872Z,-1.5
2023-02-26T07:27:00.488Z,-1.5
2023-02-26T07:28:00.153Z,-1.5
2023-02-26T07:28:59.691Z,-1.5
2023-02-26T07:30:00.250Z,-1.5
2023-02-26T07:31:00.032Z,-1.4
2023-02-26T07:32:00.496Z,-1.4
2023-02-26T07:33:00.125Z,-1.3
2023-02-26T07:33:59.991Z,-1.3
2023-02-26T07:35:00.294Z,-1.3
2023-02-26T07:36:00.004Z,-1.2
2023-02-26T07:37:00.471Z,-1.2
2023-02-26T07:38:00.390Z,-1.2
2023-02-26T07:38:59.638Z,-1.2
2023-02-26T07:40:00.459Z,-1.2
2023-02-26T07:40:59.867Z,-1.2
2023-02-26T07:42:00.668Z,-1.1
2023-02-26T07:43:00.113Z,-1.1
2023-02-26T07:43:59.672Z,-1.1
2023-02-26T07:45:00.270Z,-1.1
2023-02-26T07:45:59.877Z,-1.1
2023-02-26T07:47:00.473Z,-1.1
2023-02-26T07:48:00.082Z,-1
2023-02-26T07:48:59.653Z,-1
2023-02-26T07:50:00.232Z,-0.9
2023-02-26T07:50:59.840Z,-0.9
2023-02-26T07:52:00.439Z,-0.9
2023-02-26T07:53:00.038Z,-0.9
2023-02-26T07:53:59.609Z,-0.8
2023-02-26T07:55:00.197Z,-0.8
2023-02-26T07:55:59.791Z,-0.8
2023-02-26T07:57:00.433Z,-0.8
2023-02-26T07:58:00.040Z,-0.7
2023-02-26T07:58:59.618Z,-0.7
2023-02-26T08:00:00.179Z,-0.7
2023-02-26T08:00:59.768Z,-0.7
2023-02-26T08:02:00.359Z,-0.7
2023-02-26T08:02:59.976Z,-0.7
2023-02-26T08:04:00.598Z,-0.6
2023-02-26T08:05:00.205Z,-0.6
2023-02-26T08:05:59.763Z,-0.6
2023-02-26T08:07:00.355Z,-0.5
2023-02-26T08:07:59.944Z,-0.5
2023-02-26T08:09:00.545Z,-0.5
2023-02-26T08:10:00.160Z,-0.4
2023-02-26T08:10:59.750Z,-0.5
2023-02-26T08:12:00.370Z,-0.4
2023-02-26T08:12:59.993Z,-0.4
2023-02-26T08:14:00.537Z,-0.3
2023-02-26T08:15:00.172Z,-0.3
2023-02-26T08:15:59.796Z,-0.4
2023-02-26T08:17:00.352Z,-0.3
2023-02-26T08:17:59.941Z,-0.2
2023-02-26T08:19:00.524Z,-0.2
2023-02-26T08:20:00.157Z,-0.2
2023-02-26T08:20:59.771Z,-0.1
2023-02-26T08:22:00.335Z,0
2023-02-26T08:22:59.928Z,0
2023-02-26T08:24:00.508Z,0
2023-02-26T08:25:00.140Z,0
2023-02-26T08:25:59.677Z,0
2023-02-26T08:27:00.263Z,0
2023-02-26T08:27:59.859Z,0
2023-02-26T08:29:00.436Z,0
2023-02-26T08:30:00.049Z,0
2023-02-26T08:30:59.700Z,0
2023-02-26T08:32:00.413Z,0
2023-02-26T08:32:59.879Z,0
2023-02-26T08:34:00.440Z,0
2023-02-26T08:35:00.121Z,0
2023-02-26T08:35:59.628Z,0
2023-02-26T08:37:00.185Z,0
2023-02-26T08:37:59.832Z,0.1
2023-02-26T08:39:00.429Z,0.2
2023-02-26T08:40:00.026Z,0.2
2023-02-26T08:40:59.634Z,0.3
2023-02-26T08:42:00.193Z,0.3
2023-02-26T08:43:00.313Z,0.2
2023-02-26T08:43:59.948Z,0.3
2023-02-26T08:45:00.545Z,0.3
2023-02-26T08:46:00.202Z,0.4
2023-02-26T08:46:59.922Z,0.3
2023-02-26T08:48:00.546Z,0.4
2023-02-26T08:49:00.168Z,0.4
2023-02-26T08:49:59.756Z,0.3
2023-02-26T08:51:00.338Z,0.3
2023-02-26T08:51:59.950Z,0.5
2023-02-26T08:53:00.503Z,0.6
2023-02-26T08:54:00.123Z,0.6
2023-02-26T08:54:59.683Z,0.6
2023-02-26T08:56:00.268Z,0.5
2023-02-26T08:56:59.901Z,0.6
2023-02-26T08:58:00.472Z,0.6
2023-02-26T08:59:00.122Z,0.6
2023-02-26T08:59:59.644Z,0.7
2023-02-26T09:01:00.239Z,0.7
2023-02-26T09:01:59.922Z,0.8
2023-02-26T09:03:00.491Z,0.9
2023-02-26T09:04:00.166Z,0.8
2023-02-26T09:04:59.664Z,0.8
2023-02-26T09:06:00.240Z,0.9
2023-02-26T09:06:59.841Z,0.9
2023-02-26T09:08:00.429Z,1
2023-02-26T09:09:00.039Z,1.1
2023-02-26T09:09:59.624Z,1
2023-02-26T09:11:00.187Z,0.9
2023-02-26T09:11:59.784Z,0.9
2023-02-26T09:13:00.368Z,1
2023-02-26T09:13:59.966Z,1
2023-02-26T09:15:00.563Z,1
2023-02-26T09:16:00.445Z,1
2023-02-26T09:16:59.784Z,1
2023-02-26T09:18:00.369Z,1.1
2023-02-26T09:18:59.985Z,1.1
2023-02-26T09:20:00.551Z,1.2
2023-02-26T09:21:00.161Z,1.1
2023-02-26T09:21:59.750Z,1.2
2023-02-26T09:23:00.344Z,1.2
2023-02-26T09:23:59.944Z,1.2
2023-02-26T09:25:00.567Z,1.2
2023-02-26T09:26:00.195Z,1.3
2023-02-26T09:26:59.748Z,1.3
2023-02-26T09:28:00.401Z,1.3
2023-02-26T09:28:59.988Z,1.2
2023-02-26T09:30:00.577Z,1.4
2023-02-26T09:31:00.205Z,1.3
2023-02-26T09:31:59.908Z,1.4
2023-02-26T09:33:00.506Z,1.4
2023-02-26T09:34:00.028Z,1.3
2023-02-26T09:34:59.637Z,1.3
2023-02-26T09:36:00.174Z,1.3
2023-02-26T09:36:59.766Z,1.3
2023-02-26T09:38:00.356Z,1.3
2023-02-26T09:38:59.944Z,1.4
2023-02-26T09:40:00.532Z,1.5
2023-02-26T09:41:00.144Z,1.6
2023-02-26T09:41:59.737Z,1.6
2023-02-26T09:43:00.334Z,1.5
2023-02-26T09:43:59.950Z,1.7
2023-02-26T09:45:00.497Z,1.7
2023-02-26T09:46:00.188Z,1.7
2023-02-26T09:46:59.673Z,1.6
2023-02-26T09:48:00.260Z,1.6
2023-02-26T09:48:59.879Z,1.6
2023-02-26T09:50:00.448Z,1.6
2023-02-26T09:51:00.094Z,1.7
2023-02-26T09:51:59.619Z,1.7
2023-02-26T09:53:00.213Z,1.8
2023-02-26T09:53:59.838Z,1.8
2023-02-26T09:55:00.415Z,1.7
2023-02-26T09:56:00.004Z,1.8
2023-02-26T09:57:00.587Z,1.8
2023-02-26T09:58:00.208Z,1.9
2023-02-26T09:58:59.806Z,1.9
2023-02-26T10:00:00.493Z,1.9
2023-02-26T10:01:00.036Z,2
2023-02-26T10:01:59.683Z,1.9
2023-02-26T10:03:00.216Z,2
2023-02-26T10:03:59.834Z,2
2023-02-26T10:05:00.387Z,2
2023-02-26T10:05:59.987Z,2
2023-02-26T10:07:00.582Z,2.1
2023-02-26T10:08:00.198Z,2.1
2023-02-26T10:08:59.785Z,2.1
2023-02-26T10:10:00.367Z,2
2023-02-26T10:10:59.956Z,2
2023-02-26T10:12:00.541Z,2.1
2023-02-26T10:13:00.152Z,2
2023-02-26T10:13:59.748Z,2
2023-02-26T10:15:00.335Z,2
2023-02-26T10:15:59.924Z,2
2023-02-26T10:17:00.588Z,2.1
2023-02-26T10:18:00.150Z,2
2023-02-26T10:18:59.749Z,2.2
2023-02-26T10:20:00.334Z,2.2
2023-02-26T10:20:59.933Z,2.2
2023-02-26T10:22:00.514Z,2.2
2023-02-26T10:23:00.133Z,2.2
2023-02-26T10:23:59.681Z,2.3
2023-02-26T10:25:00.285Z,2.3
2023-02-26T10:25:59.876Z,2.5
2023-02-26T10:27:00.467Z,2.5
2023-02-26T10:28:00.096Z,2.6
2023-02-26T10:28:59.641Z,2.8
2023-02-26T10:30:00.260Z,2.7
2023-02-26T10:30:59.876Z,2.5
2023-02-26T10:32:00.538Z,2.4
2023-02-26T10:33:00.206Z,2.5
2023-02-26T10:33:59.686Z,2.4
2023-02-26T10:35:00.282Z,2.2
2023-02-26T10:35:59.880Z,2.2
2023-02-26T10:37:00.460Z,2.3
2023-02-26T10:38:00.070Z,2.3
2023-02-26T10:38:59.668Z,2.4
2023-02-26T10:40:00.244Z,2.5
2023-02-26T10:40:59.903Z,2.4
2023-02-26T10:42:00.435Z,2.5
2023-02-26T10:43:00.030Z,2.6
2023-02-26T10:43:59.606Z,2.7
2023-02-26T10:45:00.215Z,2.4
2023-02-26T10:45:59.904Z,2.4
2023-02-26T10:47:00.394Z,2.4
2023-02-26T10:47:59.986Z,2.4
2023-02-26T10:49:00.581Z,2.4
2023-02-26T10:50:00.207Z,2.4
2023-02-26T10:50:59.827Z,2.3
2023-02-26T10:52:00.385Z,2.4
2023-02-26T10:52:59.972Z,2.4
2023-02-26T10:54:00.564Z,2.5
2023-02-26T10:55:00.215Z,2.6
2023-02-26T10:55:59.821Z,2.5
2023-02-26T10:57:00.376Z,2.3
2023-02-26T10:57:59.966Z,2.4
2023-02-26T10:59:00.548Z,2.3
2023-02-26T11:00:00.179Z,2.3
2023-02-26T11:00:59.861Z,2.3
2023-02-26T11:02:00.386Z,2.3
2023-02-26T11:02:59.989Z,2.3
2023-02-26T11:04:00.574Z,2.4
2023-02-26T11:05:07.387Z,2.6
2023-02-26T11:05:59.708Z,2.5
2023-02-26T11:07:00.325Z,2.4
2023-02-26T11:07:59.925Z,2.5
2023-02-26T11:09:00.519Z,2.5
2023-02-26T11:10:00.134Z,2.6
2023-02-26T11:10:59.718Z,2.7
2023-02-26T11:12:00.298Z,2.7
2023-02-26T11:12:59.896Z,2.6
2023-02-26T11:14:00.482Z,2.7
2023-02-26T11:15:00.110Z,2.6
2023-02-26T11:15:59.746Z,2.6
2023-02-26T11:17:00.260Z,2.7
2023-02-26T11:17:59.854Z,2.8
2023-02-26T11:19:00.427Z,2.9
2023-02-26T11:20:00.024Z,2.8
2023-02-26T11:20:59.601Z,2.8
2023-02-26T11:22:00.214Z,2.9
2023-02-26T11:22:59.801Z,2.9
2023-02-26T11:24:00.393Z,2.9
2023-02-26T11:24:59.985Z,2.9
2023-02-26T11:26:00.565Z,2.9
2023-02-26T11:27:00.207Z,2.8
2023-02-26T11:27:59.797Z,2.9
2023-02-26T11:29:00.370Z,2.8
2023-02-26T11:29:59.969Z,2.9
2023-02-26T11:31:00.627Z,3
2023-02-26T11:32:00.428Z,3
2023-02-26T11:32:59.782Z,2.9
2023-02-26T11:34:00.452Z,2.9
2023-02-26T11:35:00.046Z,3
2023-02-26T11:36:00.590Z,3.1
2023-02-26T11:37:00.191Z,3.3
2023-02-26T11:37:59.947Z,3.3
2023-02-26T11:39:00.367Z,3.4
2023-02-26T11:39:59.985Z,3.2
2023-02-26T11:41:00.570Z,3
2023-02-26T11:42:00.160Z,3.3
2023-02-26T11:42:59.777Z,3.3
2023-02-26T11:44:00.371Z,3.1
2023-02-26T11:44:59.968Z,3.1
2023-02-26T11:46:00.587Z,2.9
2023-02-26T11:47:00.201Z,3
2023-02-26T11:47:59.806Z,3
2023-02-26T11:49:00.401Z,3.1
2023-02-26T11:50:00.014Z,3.2
2023-02-26T11:51:00.579Z,3.4
2023-02-26T11:52:00.171Z,3.5
2023-02-26T11:52:59.763Z,3.7
2023-02-26T11:54:00.373Z,3.4
2023-02-26T11:54:59.992Z,3.3
2023-02-26T11:56:00.547Z,3.3
2023-02-26T11:57:00.148Z,3.2
2023-02-26T11:57:59.748Z,3.3
2023-02-26T11:59:00.353Z,3.3
2023-02-26T11:59:59.962Z,3.4
2023-02-26T12:01:00.516Z,3.5
2023-02-26T12:02:00.109Z,3.7
2023-02-26T12:02:59.716Z,3.4
2023-02-26T12:04:00.377Z,3.5
2023-02-26T12:04:59.969Z,3.6
2023-02-26T12:06:00.547Z,3.4
2023-02-26T12:07:00.142Z,3.4
2023-02-26T12:07:59.739Z,3.4
2023-02-26T12:09:00.314Z,3.4
2023-02-26T12:09:59.907Z,3.2
2023-02-26T12:11:00.515Z,3.2
2023-02-26T12:12:00.160Z,3.3
2023-02-26T12:12:59.689Z,3.4
2023-02-26T12:14:00.287Z,3.5
2023-02-26T12:14:59.914Z,3.7
2023-02-26T12:16:00.569Z,3.4
2023-02-26T12:17:00.133Z,3.3
2023-02-26T12:17:59.743Z,3.4
2023-02-26T12:19:00.300Z,3.3
2023-02-26T12:19:59.891Z,3.1
2023-02-26T12:21:00.475Z,3.2
2023-02-26T12:22:00.066Z,3.3
2023-02-26T12:22:59.676Z,3.2
2023-02-26T12:24:00.234Z,3.3
2023-02-26T12:24:59.826Z,3.5
2023-02-26T12:26:00.423Z,3.5
2023-02-26T12:27:00.014Z,3.4
2023-02-26T12:27:59.619Z,3.3
2023-02-26T12:29:00.193Z,3.3
2023-02-26T12:29:59.786Z,3.4
2023-02-26T12:31:00.469Z,3.4
2023-02-26T12:32:00.145Z,3.4
2023-02-26T12:32:59.636Z,3.5
2023-02-26T12:34:00.246Z,3.7
2023-02-26T12:34:59.835Z,3.8
2023-02-26T12:36:00.416Z,3.7
2023-02-26T12:37:00.005Z,3.8
2023-02-26T12:37:59.616Z,3.7
2023-02-26T12:39:00.164Z,3.7
2023-02-26T12:39:59.751Z,3.7
2023-02-26T12:41:00.335Z,3.7
2023-02-26T12:41:59.927Z,3.8
2023-02-26T12:43:00.536Z,3.8
2023-02-26T12:44:00.142Z,3.6
2023-02-26T12:44:59.736Z,3.6
2023-02-26T12:46:00.315Z,3.7
2023-02-26T12:46:59.956Z,3.7
2023-02-26T12:48:00.524Z,3.8
2023-02-26T12:49:00.130Z,3.6
2023-02-26T12:49:59.695Z,3.5
2023-02-26T12:51:00.292Z,3.5
2023-02-26T12:51:59.890Z,3.6
2023-02-26T12:53:00.476Z,3.6
2023-02-26T12:54:00.108Z,3.6
2023-02-26T12:54:59.656Z,3.6
2023-02-26T12:56:00.240Z,3.5
2023-02-26T12:56:59.831Z,3.5
2023-02-26T12:58:00.416Z,3.6
2023-02-26T12:59:00.059Z,3.6
2023-02-26T12:59:59.617Z,3.7
2023-02-26T13:01:00.247Z,3.8
2023-02-26T13:02:01.581Z,3.8
2023-02-26T13:03:00.401Z,3.7
2023-02-26T13:04:00.038Z,3.6
2023-02-26T13:05:00.594Z,3.7
2023-02-26T13:06:00.182Z,3.8
2023-02-26T13:06:59.769Z,3.9
2023-02-26T13:08:00.360Z,3.8
2023-02-26T13:08:59.958Z,3.6
2023-02-26T13:10:00.561Z,3.8
2023-02-26T13:11:00.166Z,3.8
2023-02-26T13:11:59.759Z,3.8
2023-02-26T13:13:00.340Z,3.7
2023-02-26T13:13:59.952Z,3.7
2023-02-26T13:15:00.521Z,3.8
2023-02-26T13:16:00.227Z,3.9
2023-02-26T13:16:59.765Z,3.9
2023-02-26T13:18:00.348Z,3.9
2023-02-26T13:19:00.003Z,3.9
2023-02-26T13:20:00.556Z,4
2023-02-26T13:21:00.153Z,4.1
2023-02-26T13:21:59.733Z,4.1
2023-02-26T13:23:00.314Z,4.1
2023-02-26T13:23:59.924Z,3.9
2023-02-26T13:25:00.507Z,3.8
2023-02-26T13:26:00.116Z,3.8
2023-02-26T13:26:59.694Z,4
2023-02-26T13:28:00.303Z,4
2023-02-26T13:28:59.901Z,4
2023-02-26T13:30:00.502Z,4
2023-02-26T13:31:00.177Z,4.2
2023-02-26T13:31:59.800Z,4.2
2023-02-26T13:33:00.380Z,4.2
2023-02-26T13:33:59.917Z,4.3
2023-02-26T13:35:00.602Z,4.4
2023-02-26T13:36:00.198Z,4.4
2023-02-26T13:36:59.754Z,4.3
2023-02-26T13:38:00.325Z,4.3
2023-02-26T13:38:59.911Z,4.1
2023-02-26T13:40:00.525Z,4.1
2023-02-26T13:41:00.119Z,4.1